createdAt,value
2022-12-12T00:00:58.610Z,-3.16
2022-12-12T00:04:29.613Z,-3.14
2022-12-12T00:07:56.348Z,-3.10
2022-12-12T00:11:24.590Z,-3.05
2022-12-12T00:14:51.287Z,-2.99
2022-12-12T00:18:18.125Z,-2.94
2022-12-12T00:21:45.042Z,-2.88
2022-12-12T00:25:12.881Z,-2.83
2022-12-12T00:28:39.817Z,-2.79
2022-12-12T00:32:06.911Z,-2.75
2022-12-12T00:35:33.676Z,-2.71
2022-12-12T00:39:01.049Z,-2.68
2022-12-12T00:42:28.576Z,-2.65
2022-12-12T00:45:55.954Z,-2.60
2022-12-12T00:49:22.591Z,-2.57
2022-12-12T00:52:49.370Z,-2.54
2022-12-12T00:56:18.073Z,-2.54
2022-12-12T00:59:44.895Z,-2.56
2022-12-12T01:03:11.611Z,-2.60
2022-12-12T01:06:38.341Z,-2.62
2022-12-12T01:10:06.044Z,-2.64
2022-12-12T01:13:33.084Z,-2.64
2022-12-12T01:16:59.787Z,-2.65
2022-12-12T01:20:28.676Z,-2.64
2022-12-12T01:23:55.383Z,-2.62
2022-12-12T01:27:22.037Z,-2.58
2022-12-12T01:30:48.644Z,-2.55
2022-12-12T01:34:15.339Z,-2.51
2022-12-12T01:37:42.931Z,-2.46
2022-12-12T01:41:09.566Z,-2.41
2022-12-12T01:44:46.595Z,-2.35
2022-12-12T01:48:13.320Z,-2.29
2022-12-12T01:51:42.030Z,-2.23
2022-12-12T01:55:12.570Z,-2.16
2022-12-12T01:58:40.627Z,-2.10
2022-12-12T02:02:08.674Z,-2.06
2022-12-12T02:05:40.531Z,-2.02
2022-12-12T02:09:09.734Z,-1.98
2022-12-12T02:12:36.926Z,-1.95
2022-12-12T02:16:27.512Z,-1.91
2022-12-12T02:20:29.167Z,-1.86
2022-12-12T02:24:26.822Z,-1.81
2022-12-12T02:28:11.751Z,-1.77
2022-12-12T02:31:49.039Z,-1.73
2022-12-12T02:35:20.776Z,-1.68
2022-12-12T02:38:57.070Z,-1.64
2022-12-12T02:42:28.922Z,-1.58
2022-12-12T02:46:00.798Z,-1.53
2022-12-12T02:49:33.973Z,-1.48
2022-12-12T02:53:01.555Z,-1.44
2022-12-12T02:56:49.830Z,-1.39
2022-12-12T03:00:19.944Z,-1.36
2022-12-12T03:04:09.416Z,-1.34
2022-12-12T03:07:48.316Z,-1.30
2022-12-12T03:11:19.779Z,-1.28
2022-12-12T03:14:56.003Z,-1.25
2022-12-12T03:18:28.933Z,-1.23
2022-12-12T03:22:00.593Z,-1.21
2022-12-12T03:25:31.779Z,-1.18
2022-12-12T03:29:05.726Z,-1.16
2022-12-12T03:32:36.049Z,-1.13
2022-12-12T03:36:08.598Z,-1.11
2022-12-12T03:39:40.719Z,-1.09
2022-12-12T03:43:11.993Z,-1.07
2022-12-12T03:46:44.467Z,-1.05
2022-12-12T03:50:14.868Z,-1.04
2022-12-12T03:53:48.830Z,-1.03
2022-12-12T03:57:19.912Z,-1.01
2022-12-12T04:00:49.483Z,-0.99
2022-12-12T04:04:16.679Z,-0.97
2022-12-12T04:07:49.639Z,-0.98
2022-12-12T04:11:38.690Z,-0.98
2022-12-12T04:15:21.057Z,-0.98
2022-12-12T04:18:53.730Z,-0.97
2022-12-12T04:22:42.487Z,-0.96
2022-12-12T04:26:34.581Z,-0.97
2022-12-12T04:30:05.108Z,-0.96
2022-12-12T04:33:39.096Z,-0.97
2022-12-12T04:37:08.835Z,-0.98
2022-12-12T04:40:39.896Z,-0.99
2022-12-12T04:44:10.854Z,-0.99
2022-12-12T04:47:39.777Z,-0.99
2022-12-12T04:51:07.656Z,-0.99
2022-12-12T04:54:40.985Z,-1.00
2022-12-12T04:58:08.965Z,-0.99
2022-12-12T05:01:51.137Z,-1.00
2022-12-12T05:19:40.828Z,-0.70
2022-12-12T05:23:07.649Z,-0.66
2022-12-12T05:26:36.016Z,-0.70
2022-12-12T05:30:02.781Z,-0.74
2022-12-12T05:33:29.647Z,-0.77
2022-12-12T05:36:56.438Z,-0.80
2022-12-12T05:40:23.997Z,-0.82
2022-12-12T05:43:52.339Z,-0.84
2022-12-12T05:47:19.875Z,-0.86
2022-12-12T05:50:46.524Z,-0.87
2022-12-12T05:54:13.804Z,-0.88
2022-12-12T05:57:40.485Z,-0.89
2022-12-12T06:01:08.657Z,-0.90
2022-12-12T06:04:35.309Z,-0.91
2022-12-12T06:08:01.983Z,-0.91
2022-12-12T06:11:28.747Z,-0.91
2022-12-12T06:14:55.398Z,-0.90
2022-12-12T06:18:22.074Z,-0.89
2022-12-12T06:21:48.933Z,-0.89
2022-12-12T06:25:16.171Z,-0.90
2022-12-12T06:28:43.488Z,-0.89
2022-12-12T06:32:10.206Z,-0.88
2022-12-12T06:35:37.005Z,-0.88
2022-12-12T06:39:03.917Z,-0.87
2022-12-12T06:42:30.488Z,-0.86
2022-12-12T06:46:03.853Z,-0.86
2022-12-12T06:49:30.613Z,-0.86
2022-12-12T06:52:57.301Z,-0.85
2022-12-12T06:56:26.764Z,-0.86
2022-12-12T06:59:52.389Z,-0.84
2022-12-12T07:03:19.346Z,-0.84
2022-12-12T07:06:46.166Z,-0.84
2022-12-12T07:10:13.084Z,-0.82
2022-12-12T07:13:40.080Z,-0.82
2022-12-12T07:17:06.888Z,-0.79
2022-12-12T07:20:33.673Z,-0.78
2022-12-12T07:24:00.310Z,-0.76
2022-12-12T07:27:27.007Z,-0.74
2022-12-12T07:30:53.859Z,-0.70
2022-12-12T07:34:20.741Z,-0.67
2022-12-12T07:37:47.641Z,-0.64
2022-12-12T07:41:18.663Z,-0.60
2022-12-12T07:44:47.653Z,-0.55
2022-12-12T07:48:15.155Z,-0.50
2022-12-12T07:51:45.651Z,-0.43
2022-12-12T07:55:16.085Z,-0.38
2022-12-12T07:58:43.306Z,-0.32
2022-12-12T08:02:11.991Z,-0.25
2022-12-12T08:05:41.930Z,-0.18
2022-12-12T08:09:09.280Z,-0.11
2022-12-12T08:12:36.336Z,-0.04
2022-12-12T08:16:03.286Z,0.02
2022-12-12T08:19:30.397Z,0.07
2022-12-12T08:22:57.099Z,0.14
2022-12-12T08:26:23.774Z,0.22
2022-12-12T08:29:52.849Z,0.29
2022-12-12T08:33:19.961Z,0.31
2022-12-12T08:36:47.546Z,0.31
2022-12-12T08:40:15.024Z,0.32
2022-12-12T08:43:43.093Z,0.34
2022-12-12T08:47:09.834Z,0.33
2022-12-12T08:50:36.912Z,0.34
2022-12-12T08:54:03.586Z,0.36
2022-12-12T08:57:30.412Z,0.37
2022-12-12T09:00:57.820Z,0.40
2022-12-12T09:04:24.950Z,0.44
2022-12-12T09:07:52.616Z,0.47
2022-12-12T09:11:20.050Z,0.51
2022-12-12T09:14:46.779Z,0.56
2022-12-12T09:18:13.739Z,0.54
2022-12-12T09:21:40.631Z,0.52
2022-12-12T09:25:08.086Z,0.50
2022-12-12T09:28:34.815Z,0.49
2022-12-12T09:32:06.333Z,0.49
2022-12-12T09:35:33.355Z,0.51
2022-12-12T09:39:00.238Z,0.56
2022-12-12T09:42:29.709Z,0.57
2022-12-12T09:45:57.159Z,0.59
2022-12-12T09:49:30.503Z,0.65
2022-12-12T09:53:01.263Z,0.69
2022-12-12T09:56:35.812Z,0.73
2022-12-12T10:00:07.428Z,0.78
2022-12-12T10:03:50.708Z,0.78
2022-12-12T10:07:23.193Z,0.82
2022-12-12T10:10:53.844Z,0.82
2022-12-12T10:14:24.774Z,0.88
2022-12-12T10:17:52.703Z,0.94
2022-12-12T10:21:24.193Z,1.00
2022-12-12T10:24:54.788Z,1.10
2022-12-12T10:28:24.537Z,1.13
2022-12-12T10:31:58.355Z,1.14
2022-12-12T10:35:30.944Z,1.16
2022-12-12T10:39:10.015Z,1.16
2022-12-12T10:42:44.363Z,1.09
2022-12-12T10:47:04.395Z,1.07
2022-12-12T10:50:34.303Z,1.05
2022-12-12T10:54:01.148Z,1.06
2022-12-12T10:57:30.141Z,1.01
2022-12-12T11:01:04.693Z,1.02
2022-12-12T11:04:34.154Z,1.05
2022-12-12T11:08:08.126Z,1.06
2022-12-12T11:11:35.097Z,1.12
2022-12-12T11:15:07.533Z,1.17
2022-12-12T11:18:34.469Z,1.20
2022-12-12T11:22:05.918Z,1.23
2022-12-12T11:25:34.627Z,1.30
2022-12-12T11:29:06.095Z,1.36
2022-12-12T11:32:39.138Z,1.45
2022-12-12T11:36:07.501Z,1.53
2022-12-12T11:39:40.709Z,1.65
2022-12-12T11:43:26.486Z,1.76
2022-12-12T11:46:53.238Z,1.89
2022-12-12T11:50:23.845Z,1.95
2022-12-12T11:53:50.453Z,2.01
2022-12-12T11:57:29.705Z,2.05
2022-12-12T12:01:05.063Z,2.04
2022-12-12T12:04:53.281Z,2.03
2022-12-12T12:08:30.590Z,2.09
2022-12-12T12:13:55.911Z,2.15
2022-12-12T12:17:32.581Z,2.10
2022-12-12T12:21:28.307Z,2.12
2022-12-12T12:25:16.229Z,2.19
2022-12-12T12:29:12.801Z,2.24
2022-12-12T12:32:53.220Z,2.29
2022-12-12T12:36:25.261Z,2.30
2022-12-12T12:40:09.910Z,2.21
2022-12-12T12:47:04.975Z,2.00
2022-12-12T12:50:38.503Z,1.88
2022-12-12T12:54:08.557Z,1.82
2022-12-12T12:57:39.272Z,1.78
2022-12-12T13:01:10.084Z,1.71
2022-12-12T13:04:47.501Z,1.64
2022-12-12T13:08:24.275Z,1.57
2022-12-12T13:11:56.302Z,1.51
2022-12-12T13:15:27.330Z,1.47
2022-12-12T13:19:07.082Z,1.45
2022-12-12T13:22:48.092Z,1.40
2022-12-12T13:26:23.044Z,1.34
2022-12-12T13:29:54.278Z,1.28
2022-12-12T13:33:41.850Z,1.22
2022-12-12T13:37:09.408Z,1.12
2022-12-12T13:40:40.714Z,1.03
2022-12-12T13:44:28.058Z,0.96
2022-12-12T13:48:02.960Z,0.87
2022-12-12T13:51:41.337Z,0.81
2022-12-12T13:55:24.131Z,0.74
2022-12-12T13:58:50.778Z,0.68
2022-12-12T14:02:31.841Z,0.59
2022-12-12T14:06:12.610Z,0.51
2022-12-12T14:09:48.135Z,0.43
2022-12-12T14:13:27.502Z,0.36
2022-12-12T14:16:56.923Z,0.29
2022-12-12T14:20:30.972Z,0.22
2022-12-12T14:24:17.640Z,0.15
2022-12-12T14:28:14.632Z,0.08
2022-12-12T14:31:45.765Z,0.02
2022-12-12T14:39:28.632Z,0.00
2022-12-12T14:43:20.764Z,0.02
2022-12-12T14:46:49.328Z,0.03
2022-12-12T14:50:19.813Z,0.04
2022-12-12T14:53:49.789Z,0.05
2022-12-12T14:57:22.999Z,0.06
2022-12-12T15:00:53.766Z,0.08
2022-12-12T15:04:25.787Z,0.08
2022-12-12T15:08:01.027Z,0.08
2022-12-12T15:11:31.613Z,0.07
2022-12-12T15:14:59.658Z,0.06
2022-12-12T15:18:26.320Z,0.03
2022-12-12T15:21:53.579Z,-0.01
2022-12-12T15:25:23.603Z,-0.04
2022-12-12T15:28:51.736Z,-0.07
2022-12-12T15:32:22.684Z,-0.11
2022-12-12T15:35:59.681Z,-0.14
2022-12-12T15:39:28.211Z,-0.18
2022-12-12T15:42:58.630Z,-0.23
2022-12-12T15:46:25.500Z,-0.27
2022-12-12T15:49:54.440Z,-0.28
2022-12-12T15:53:25.440Z,-0.27
2022-12-12T15:56:53.486Z,-0.27
2022-12-12T16:00:32.162Z,-0.28
2022-12-12T16:04:01.614Z,-0.26
2022-12-12T16:07:28.709Z,-0.25
2022-12-12T16:10:56.747Z,-0.24
2022-12-12T16:14:32.483Z,-0.22
2022-12-12T16:18:16.340Z,-0.21
2022-12-12T16:21:45.862Z,-0.22
2022-12-12T16:25:21.234Z,-0.22
2022-12-12T16:28:47.863Z,-0.21
2022-12-12T16:32:19.002Z,-0.21
2022-12-12T16:35:45.792Z,-0.21
2022-12-12T16:39:13.998Z,-0.22
2022-12-12T16:42:40.705Z,-0.23
2022-12-12T16:46:08.080Z,-0.25
2022-12-12T16:49:34.705Z,-0.27
2022-12-12T16:53:01.311Z,-0.29
2022-12-12T16:56:28.316Z,-0.32
2022-12-12T16:59:55.260Z,-0.36
2022-12-12T17:03:23.489Z,-0.40
2022-12-12T17:06:50.731Z,-0.45
2022-12-12T17:10:17.793Z,-0.49
2022-12-12T17:13:50.155Z,-0.51
2022-12-12T17:17:16.847Z,-0.54
2022-12-12T17:20:44.090Z,-0.57
2022-12-12T17:24:11.326Z,-0.59
2022-12-12T17:27:38.373Z,-0.60
2022-12-12T17:31:08.819Z,-0.60
2022-12-12T17:34:36.124Z,-0.62
2022-12-12T17:38:03.369Z,-0.64
2022-12-12T17:41:30.124Z,-0.64
2022-12-12T17:44:57.689Z,-0.65
2022-12-12T17:48:25.094Z,-0.67
2022-12-12T17:51:51.700Z,-0.68
2022-12-12T17:55:55.237Z,-0.68
2022-12-12T17:59:08.094Z,-0.72
2022-12-12T18:02:33.934Z,-0.74
2022-12-12T18:06:03.434Z,-0.76
2022-12-12T18:09:30.173Z,-0.78
2022-12-12T18:12:56.863Z,-0.80
2022-12-12T18:16:25.772Z,-0.83
2022-12-12T18:19:52.656Z,-0.84
2022-12-12T18:23:19.978Z,-0.85
2022-12-12T18:26:47.843Z,-0.85
2022-12-12T18:30:16.307Z,-0.85
2022-12-12T18:33:43.624Z,-0.86
2022-12-12T18:37:10.296Z,-0.86
2022-12-12T18:40:39.201Z,-0.86
2022-12-12T18:44:09.241Z,-0.87
2022-12-12T18:47:35.970Z,-0.88
2022-12-12T18:51:08.319Z,-0.90
2022-12-12T18:54:35.064Z,-0.92
2022-12-12T18:58:02.136Z,-0.93
2022-12-12T19:01:30.970Z,-0.94
2022-12-12T19:04:57.597Z,-0.95
2022-12-12T19:08:24.260Z,-0.97
2022-12-12T19:11:54.243Z,-0.99
2022-12-12T19:15:25.475Z,-1.00
2022-12-12T19:18:52.090Z,-1.01
2022-12-12T19:22:43.679Z,-1.01
2022-12-12T19:26:11.066Z,-1.03
2022-12-12T19:29:38.240Z,-1.04
2022-12-12T19:33:05.068Z,-1.05
2022-12-12T19:36:32.497Z,-1.07
2022-12-12T19:40:01.755Z,-1.09
2022-12-12T19:43:31.591Z,-1.10
2022-12-12T19:46:58.371Z,-1.11
2022-12-12T19:50:25.102Z,-1.15
2022-12-12T19:53:53.469Z,-1.17
2022-12-12T19:57:21.195Z,-1.18
2022-12-12T20:00:50.603Z,-1.21
2022-12-12T20:04:19.689Z,-1.23
2022-12-12T20:07:46.242Z,-1.25
2022-12-12T20:11:15.209Z,-1.26
2022-12-12T20:14:41.843Z,-1.26
2022-12-12T20:18:14.822Z,-1.25
2022-12-12T20:22:00.687Z,-1.27
2022-12-12T20:25:28.118Z,-1.28
2022-12-12T20:28:57.683Z,-1.30
2022-12-12T20:32:24.225Z,-1.30
2022-12-12T20:35:50.948Z,-1.33
2022-12-12T20:39:22.170Z,-1.35
2022-12-12T20:42:55.976Z,-1.38
2022-12-12T20:46:29.756Z,-1.40
2022-12-12T20:49:56.376Z,-1.43
2022-12-12T20:53:23.661Z,-1.45
2022-12-12T20:56:50.823Z,-1.48
2022-12-12T21:00:19.509Z,-1.51
2022-12-12T21:03:47.878Z,-1.50
2022-12-12T21:07:14.813Z,-1.50
2022-12-12T21:10:41.759Z,-1.51
2022-12-12T21:14:09.517Z,-1.51
2022-12-12T21:17:36.364Z,-1.53
2022-12-12T21:21:02.882Z,-1.55
2022-12-12T21:24:30.313Z,-1.57
2022-12-12T21:27:58.585Z,-1.60
2022-12-12T21:31:28.871Z,-1.62
2022-12-12T21:34:55.959Z,-1.66
2022-12-12T21:38:22.722Z,-1.66
2022-12-12T21:41:49.409Z,-1.66
2022-12-12T21:45:17.520Z,-1.65
2022-12-12T21:48:44.528Z,-1.65
2022-12-12T21:52:12.205Z,-1.66
2022-12-12T21:55:41.239Z,-1.67
2022-12-12T21:59:08.058Z,-1.65
2022-12-12T22:02:34.731Z,-1.63
2022-12-12T22:06:01.973Z,-1.61
2022-12-12T22:09:29.284Z,-1.59
2022-12-12T22:12:57.136Z,-1.57
2022-12-12T22:16:24.510Z,-1.56
2022-12-12T22:19:51.513Z,-1.55
2022-12-12T22:23:18.357Z,-1.54
2022-12-12T22:26:47.879Z,-1.54
2022-12-12T22:30:16.090Z,-1.54
2022-12-12T22:33:42.909Z,-1.53
2022-12-12T22:37:09.765Z,-1.54
2022-12-12T22:40:36.598Z,-1.55
2022-12-12T22:44:07.679Z,-1.56
2022-12-12T22:47:34.312Z,-1.59
2022-12-12T22:51:01.681Z,-1.61
2022-12-12T22:54:29.011Z,-1.62
2022-12-12T22:57:55.708Z,-1.64
2022-12-12T23:01:24.321Z,-1.66
2022-12-12T23:04:50.960Z,-1.67
2022-12-12T23:08:17.918Z,-1.69
2022-12-12T23:11:46.085Z,-1.72
2022-12-12T23:15:14.120Z,-1.75
2022-12-12T23:18:42.269Z,-1.75
2022-12-12T23:22:09.107Z,-1.75
2022-12-12T23:25:37.432Z,-1.74
2022-12-12T23:29:05.197Z,-1.76
2022-12-12T23:32:32.055Z,-1.80
2022-12-12T23:35:58.745Z,-1.85
2022-12-12T23:39:26.815Z,-1.89
2022-12-12T23:42:54.534Z,-1.92
2022-12-12T23:46:32.429Z,-1.95
2022-12-12T23:49:59.354Z,-1.97
2022-12-12T23:53:26.432Z,-1.99
2022-12-12T23:56:54.222Z,-2.02
